Time;durP1;ratioP1;P1;durP2;ratioP2;P2;SDS_P1;SDS_P2;PMS_P1;PMS_P2;Temp;Humidity;BMP_temperature;BMP_pressure;BME280_temperature;BME280_humidity;BME280_pressure;Samples;Min_cycle;Max_cycle;Signal;HPM_P1;HPM_P2
2021/11/11 00:00:48;;;;;;;30.67;17.42;;;;;;;10.37;56.05;102067.03;5087851;27;100403;-84
2021/11/11 00:03:15;;;;;;;25.40;15.52;;;;;;;10.32;57.07;102063.56;5075567;27;97743;-85
2021/11/11 00:05:45;;;;;;;29.20;16.40;;;;;;;10.26;56.88;102074.22;5080902;27;96781;-85
2021/11/11 00:08:14;;;;;;;29.15;15.10;;;;;;;10.62;55.42;102078.13;5085368;27;96696;-87
2021/11/11 00:10:42;;;;;;;28.58;15.25;;;;;;;10.63;56.01;102088.66;5092219;27;100312;-86
2021/11/11 00:13:09;;;;;;;29.23;16.35;;;;;;;10.86;55.46;102092.75;5078930;27;96758;-87
2021/11/11 00:15:37;;;;;;;25.77;15.88;;;;;;;10.63;55.10;102078.09;5094714;27;96523;-88
2021/11/11 00:18:06;;;;;;;31.17;16.40;;;;;;;10.56;55.32;102070.28;5097432;27;96595;-87
2021/11/11 00:20:33;;;;;;;29.88;16.67;;;;;;;10.65;55.27;102068.38;5090950;27;100420;-85
2021/11/11 00:23:03;;;;;;;28.67;16.35;;;;;;;10.54;55.53;102067.66;5078784;27;96802;-85
2021/11/11 00:25:35;;;;;;;31.83;17.70;;;;;;;10.10;56.07;102068.25;5094022;27;96640;-87
2021/11/11 00:28:01;;;;;;;30.92;17.27;;;;;;;10.38;55.86;102068.75;5093467;27;99958;-87
2021/11/11 00:30:30;;;;;;;28.88;15.38;;;;;;;10.34;55.54;102061.78;5096210;27;99357;-86
2021/11/11 00:32:57;;;;;;;29.10;16.27;;;;;;;10.67;55.23;102061.31;5091888;27;96311;-86
2021/11/11 00:35:28;;;;;;;25.83;16.00;;;;;;;10.63;55.07;102064.03;5090202;27;96712;-87
2021/11/11 00:37:57;;;;;;;27.33;15.98;;;;;;;10.83;54.81;102069.00;5087960;27;98134;-87
2021/11/11 00:40:25;;;;;;;28.02;15.65;;;;;;;10.30;54.87;102071.53;5080099;27;99304;-87
2021/11/11 00:42:56;;;;;;;26.27;16.85;;;;;;;10.22;56.00;102081.31;5073642;27;96893;-88
2021/11/11 00:45:23;;;;;;;31.35;17.23;;;;;;;10.06;56.03;102070.91;5080152;27;96808;-87
2021/11/11 00:47:50;;;;;;;26.48;15.45;;;;;;;9.93;56.41;102071.06;5076745;27;97795;-87
2021/11/11 00:50:19;;;;;;;28.60;16.08;;;;;;;9.85;56.86;102072.91;5078622;27;99347;-87
2021/11/11 00:52:46;;;;;;;28.90;15.93;;;;;;;10.15;55.57;102069.06;5081916;27;96728;-87
2021/11/11 00:55:14;;;;;;;28.75;16.30;;;;;;;10.20;55.14;102075.19;5081709;27;96885;-87
2021/11/11 00:57:41;;;;;;;28.20;16.80;;;;;;;9.97;56.05;102067.53;5068831;27;100363;-87
2021/11/11 01:00:13;;;;;;;30.15;16.45;;;;;;;10.11;55.60;102066.47;5061658;27;98031;-85
2021/11/11 01:02:40;;;;;;;28.85;15.82;;;;;;;9.95;56.04;102066.66;5081080;27;96819;-85
2021/11/11 01:05:08;;;;;;;29.52;16.80;;;;;;;9.79;56.47;102061.56;5069672;27;97227;-85
2021/11/11 01:07:35;;;;;;;26.58;16.05;;;;;;;9.72;56.73;102060.75;5086151;27;99195;-86
2021/11/11 01:10:02;;;;;;;35.42;17.33;;;;;;;9.51;57.43;102063.66;5081898;27;98832;-85
2021/11/11 01:12:29;;;;;;;28.98;16.52;;;;;;;9.70;56.48;102046.72;5085223;27;96884;-86
2021/11/11 01:14:55;;;;;;;35.45;16.58;;;;;;;9.79;56.56;102046.59;5067864;27;96722;-85
2021/11/11 01:17:24;;;;;;;35.92;18.35;;;;;;;9.71;56.40;102053.75;5085508;27;99674;-85
2021/11/11 01:19:50;;;;;;;28.58;16.45;;;;;;;9.63;56.56;102057.34;5088065;27;98047;-85
2021/11/11 01:22:17;;;;;;;32.80;16.20;;;;;;;9.48;56.71;102045.19;5091050;27;96739;-85
2021/11/11 01:24:44;;;;;;;28.95;15.93;;;;;;;9.35;57.34;102046.22;5096442;27;96519;-86
2021/11/11 01:27:11;;;;;;;28.13;16.42;;;;;;;9.22;57.63;102049.84;5090423;27;98144;-87
2021/11/11 01:29:39;;;;;;;29.42;16.50;;;;;;;9.38;57.18;102039.16;5082154;27;99047;-86
2021/11/11 01:32:06;;;;;;;25.67;15.55;;;;;;;9.51;56.66;102039.91;5087393;27;97125;-86
2021/11/11 01:34:35;;;;;;;25.98;15.00;;;;;;;9.25;56.91;102044.56;5064166;27;96883;-86
2021/11/11 01:37:03;;;;;;;32.45;16.85;;;;;;;9.11;57.71;102035.00;5065892;27;99067;-86
2021/11/11 01:39:29;;;;;;;30.92;16.13;;;;;;;9.72;55.90;102039.63;5064219;27;97884;-86
2021/11/11 01:41:56;;;;;;;28.42;16.17;;;;;;;9.97;55.25;102035.84;5089628;27;96678;-85
2021/11/11 01:44:23;;;;;;;27.65;16.48;;;;;;;9.56;55.99;102032.81;5102443;27;96052;-86
2021/11/11 01:46:50;;;;;;;36.88;18.80;;;;;;;9.75;55.32;102033.47;5099825;27;98971;-86
2021/11/11 01:49:17;;;;;;;31.85;17.83;;;;;;;9.42;56.17;102030.31;5069609;27;97485;-87
2021/11/11 01:51:47;;;;;;;31.55;17.20;;;;;;;9.67;56.14;102015.06;5080551;27;96721;-87
2021/11/11 01:54:16;;;;;;;28.85;17.63;;;;;;;9.83;55.43;102014.00;5068401;27;96678;-87
2021/11/11 01:56:43;;;;;;;30.55;17.15;;;;;;;9.69;55.05;102013.28;5080929;27;100310;-87
2021/11/11 01:59:10;;;;;;;29.08;18.08;;;;;;;9.78;55.02;102014.97;5089058;27;97336;-87
2021/11/11 02:01:38;;;;;;;28.88;16.85;;;;;;;9.72;54.88;102012.38;5094437;27;96645;-87
2021/11/11 02:04:05;;;;;;;33.08;17.70;;;;;;;9.28;55.88;102018.13;5092326;27;97542;-87
2021/11/11 02:06:36;;;;;;;30.15;18.38;;;;;;;9.27;56.18;102019.91;5091627;27;98737;-87
2021/11/11 02:09:14;;;;;;;29.65;16.92;;;;;;;9.51;55.54;102018.78;5091122;27;99226;-87
2021/11/11 02:11:41;;;;;;;31.77;17.33;;;;;;;9.39;55.82;102017.13;5083549;27;96674;-86
2021/11/11 02:14:08;;;;;;;32.42;16.60;;;;;;;9.36;55.16;102013.66;5092343;27;96795;-85
2021/11/11 02:16:36;;;;;;;29.02;17.63;;;;;;;9.42;55.55;102019.75;5092460;27;100708;-88
2021/11/11 02:19:04;;;;;;;34.33;18.58;;;;;;;9.49;55.07;102013.53;5083958;27;96545;-86
2021/11/11 02:21:34;;;;;;;29.75;17.67;;;;;;;9.51;55.68;102005.59;5082922;27;96606;-87
2021/11/11 02:24:02;;;;;;;32.25;17.73;;;;;;;9.66;55.21;102010.69;5080677;27;96818;-86
2021/11/11 02:26:29;;;;;;;28.83;17.90;;;;;;;9.79;55.01;102016.69;5068015;27;100338;-87
2021/11/11 02:28:58;;;;;;;30.38;17.50;;;;;;;9.78;54.74;102007.03;5080443;27;100802;-86
2021/11/11 02:31:25;;;;;;;29.52;17.20;;;;;;;9.68;55.10;102008.91;5080126;27;96638;-86
2021/11/11 02:33:53;;;;;;;33.78;18.45;;;;;;;9.65;54.89;102011.56;5079345;27;97326;-86
2021/11/11 02:36:20;;;;;;;29.98;16.42;;;;;;;9.73;54.70;101999.16;5080805;27;98280;-86
2021/11/11 02:38:49;;;;;;;32.38;17.27;;;;;;;9.76;54.33;101992.97;5081676;27;98375;-86
2021/11/11 02:41:17;;;;;;;29.80;17.35;;;;;;;9.83;54.38;101990.25;5090598;27;96481;-86
2021/11/11 02:43:45;;;;;;;31.45;17.25;;;;;;;9.82;54.22;101983.22;5092647;27;96668;-86
2021/11/11 02:46:12;;;;;;;29.20;17.00;;;;;;;9.68;54.83;101986.91;5076519;27;96727;-86
2021/11/11 02:48:38;;;;;;;29.85;16.80;;;;;;;9.60;54.91;101987.88;5090083;27;97739;-85
2021/11/11 02:51:05;;;;;;;28.23;16.92;;;;;;;9.61;54.17;101994.03;5088873;27;96547;-86
2021/11/11 02:53:31;;;;;;;29.35;17.08;;;;;;;9.48;55.47;101982.75;5084768;27;96718;-86
2021/11/11 02:56:00;;;;;;;28.08;16.55;;;;;;;9.50;54.49;101983.63;5067211;27;96601;-86
2021/11/11 02:58:27;;;;;;;26.65;16.20;;;;;;;9.29;54.89;101978.56;5083762;27;99458;-86
2021/11/11 03:00:58;;;;;;;30.83;16.67;;;;;;;9.17;55.34;101979.56;5070081;27;96739;-86
2021/11/11 03:03:25;;;;;;;32.33;17.08;;;;;;;9.02;56.00;101977.06;5083338;27;96673;-86
2021/11/11 03:05:52;;;;;;;29.73;16.88;;;;;;;9.39;55.22;101985.47;5080894;27;97789;-86
2021/11/11 03:08:19;;;;;;;34.40;15.98;;;;;;;9.47;55.23;101991.53;5083891;27;99135;-86
2021/11/11 03:10:47;;;;;;;30.83;17.10;;;;;;;9.52;54.20;101981.81;5068153;27;96749;-86
2021/11/11 03:13:17;;;;;;;29.08;16.55;;;;;;;9.65;53.43;101987.81;5080479;27;96847;-86
2021/11/11 03:15:44;;;;;;;30.85;17.00;;;;;;;9.28;54.56;101978.56;5073553;27;96990;-85
2021/11/11 03:18:12;;;;;;;28.52;16.08;;;;;;;9.39;54.31;101985.47;5077529;27;99607;-85
2021/11/11 03:20:38;;;;;;;30.23;16.55;;;;;;;9.03;54.94;101981.47;5077315;27;96600;-84
2021/11/11 03:23:06;;;;;;;30.70;17.20;;;;;;;9.02;55.35;101987.63;5043556;27;96926;-86
2021/11/11 03:25:35;;;;;;;26.83;16.67;;;;;;;9.28;54.95;101994.41;5065758;27;100537;-84
2021/11/11 03:28:03;;;;;;;28.75;16.48;;;;;;;9.17;55.29;101997.16;5079197;27;99303;-84
2021/11/11 03:30:33;;;;;;;29.98;16.63;;;;;;;9.26;54.84;102010.22;5079144;27;97028;-86
2021/11/11 03:33:01;;;;;;;30.60;16.15;;;;;;;8.93;55.11;102008.78;5080045;27;96909;-86
2021/11/11 03:35:28;;;;;;;29.13;16.38;;;;;;;8.96;55.56;102018.44;5081431;27;97860;-86
2021/11/11 03:37:58;;;;;;;28.58;16.55;;;;;;;9.01;55.56;102017.50;5080719;27;98199;-87
2021/11/11 03:40:27;;;;;;;29.70;16.33;;;;;;;8.95;55.36;102006.16;5082436;27;96681;-86
2021/11/11 03:42:54;;;;;;;28.88;16.15;;;;;;;8.92;55.27;102001.78;5091294;27;96619;-85
2021/11/11 03:48:11;;;;;;;30.42;16.83;;;;;;;8.52;55.74;102017.03;5096966;27;98849;-85
2021/11/11 03:53:20;;;;;;;26.92;15.90;;;;;;;8.59;55.46;102008.22;5097354;27;96669;-87
2021/11/11 03:55:46;;;;;;;28.20;15.98;;;;;;;8.82;54.89;102005.38;5094393;27;99072;-86
2021/11/11 03:58:17;;;;;;;30.35;16.55;;;;;;;8.82;54.72;102002.75;5085571;27;99637;-86
2021/11/11 04:00:45;;;;;;;29.00;16.08;;;;;;;8.79;54.77;101994.88;5063501;27;97191;-87
2021/11/11 04:03:14;;;;;;;30.23;16.98;;;;;;;8.89;55.11;101991.25;5062802;27;97079;-86
2021/11/11 04:05:40;;;;;;;31.80;17.10;;;;;;;9.01;54.85;101993.78;5061042;27;97897;-87
2021/11/11 04:08:07;;;;;;;29.20;16.70;;;;;;;9.10;54.50;101990.19;5079739;27;98094;-87
2021/11/11 04:10:35;;;;;;;30.98;17.25;;;;;;;8.99;54.20;101990.28;5083179;27;96765;-85
2021/11/11 04:13:04;;;;;;;30.77;15.48;;;;;;;8.74;55.11;101997.53;5083734;27;96744;-85
2021/11/11 04:15:31;;;;;;;26.48;15.45;;;;;;;8.57;55.64;101991.53;5081756;27;99456;-85
2021/11/11 04:17:58;;;;;;;30.83;16.35;;;;;;;8.55;55.44;102005.59;5079936;27;101318;-85
2021/11/11 04:20:29;;;;;;;26.67;15.35;;;;;;;8.56;55.70;102004.72;5084736;27;96697;-85
2021/11/11 04:22:57;;;;;;;27.98;15.35;;;;;;;8.53;55.86;102008.25;5098651;27;96641;-85
2021/11/11 04:25:28;;;;;;;30.23;15.68;;;;;;;8.46;55.40;102008.31;5096169;27;100239;-87
2021/11/11 04:27:59;;;;;;;29.60;15.40;;;;;;;8.30;56.12;102007.47;5099891;27;99415;-87
2021/11/11 04:30:28;;;;;;;28.52;16.05;;;;;;;8.36;55.87;102010.09;5094314;27;96924;-86
2021/11/11 04:32:55;;;;;;;30.08;15.88;;;;;;;8.30;56.18;102008.41;5096484;27;96589;-86
2021/11/11 04:35:23;;;;;;;27.65;14.95;;;;;;;8.33;55.62;102012.78;5096395;27;99671;-86
2021/11/11 04:38:01;;;;;;;31.15;16.08;;;;;;;8.39;55.73;102005.72;5085001;27;100631;-87
2021/11/11 04:43:46;;;;;;;35.50;16.30;;;;;;;8.73;55.69;101989.63;5045411;27;97129;-87
2021/11/11 04:49:29;;;;;;;28.45;15.57;;;;;;;8.69;55.17;101986.16;5067468;27;96948;-86
2021/11/11 04:52:13;;;;;;;26.30;15.05;;;;;;;8.77;54.92;101991.38;5085222;27;96683;-87
2021/11/11 05:00:26;;;;;;;32.20;16.95;;;;;;;8.76;55.31;101995.75;5085005;27;96722;-87
2021/11/11 05:03:01;;;;;;;27.58;16.48;;;;;;;8.56;55.41;101988.91;5082944;27;97217;-86
2021/11/11 05:05:28;;;;;;;29.60;16.52;;;;;;;8.57;55.28;101991.53;5078685;27;97067;-87
2021/11/11 05:07:55;;;;;;;33.45;17.70;;;;;;;8.44;55.13;101991.63;5064545;27;99617;-86
2021/11/11 05:10:24;;;;;;;34.15;15.98;;;;;;;8.64;54.92;101985.34;5078983;27;100974;-86
2021/11/11 05:12:51;;;;;;;28.67;15.82;;;;;;;8.77;54.71;101994.00;5080381;27;97013;-85
2021/11/11 05:15:19;;;;;;;31.38;16.02;;;;;;;8.71;54.39;101989.66;5078706;27;96818;-86
2021/11/11 05:17:46;;;;;;;27.38;15.88;;;;;;;8.47;55.21;101991.63;5082151;27;100631;-86
2021/11/11 05:20:14;;;;;;;30.73;15.82;;;;;;;8.60;54.63;101996.75;5079948;27;99181;-86
2021/11/11 05:22:41;;;;;;;25.73;15.45;;;;;;;8.97;54.43;101999.97;5079838;27;96629;-86
2021/11/11 05:25:17;;;;;;;30.02;15.60;;;;;;;9.16;54.29;102006.84;5084715;27;96862;-87
2021/11/11 05:27:46;;;;;;;30.52;16.15;;;;;;;9.07;54.07;101993.72;5099904;27;98069;-86
2021/11/11 05:30:18;;;;;;;28.55;16.67;;;;;;;8.99;53.79;101992.91;5096862;27;99945;-86
2021/11/11 05:32:45;;;;;;;28.48;16.48;;;;;;;8.82;54.64;101997.47;5083966;27;97038;-86
2021/11/11 05:35:13;;;;;;;25.83;15.10;;;;;;;8.86;54.71;101982.53;5092430;27;96764;-87
2021/11/11 05:37:40;;;;;;;28.98;17.02;;;;;;;8.76;54.86;102000.16;5082539;27;98147;-86
2021/11/11 05:40:08;;;;;;;28.27;15.75;;;;;;;8.93;54.66;101986.81;5080297;27;101375;-86
2021/11/11 05:42:35;;;;;;;29.85;16.88;;;;;;;8.73;54.77;101994.91;5088476;27;96753;-88
2021/11/11 05:45:05;;;;;;;29.05;16.00;;;;;;;8.83;54.12;101995.72;5071643;27;96730;-86
2021/11/11 05:47:32;;;;;;;31.80;16.20;;;;;;;8.55;54.88;102005.59;5065220;27;99611;-86
2021/11/11 05:49:59;;;;;;;30.13;16.10;;;;;;;8.80;54.69;101996.59;5100126;27;96881;-85
2021/11/11 05:52:26;;;;;;;41.67;22.05;;;;;;;8.63;54.58;102002.03;5102921;27;97045;-84
2021/11/11 05:54:53;;;;;;;32.40;16.58;;;;;;;8.54;54.77;102011.75;5102972;27;96711;-85
2021/11/11 05:57:20;;;;;;;32.80;16.90;;;;;;;8.58;55.62;102011.72;5089401;27;98664;-86
2021/11/11 05:59:47;;;;;;;28.10;15.95;;;;;;;8.53;55.26;102018.78;5065164;27;99986;-85
2021/11/11 06:02:18;;;;;;;27.50;15.63;;;;;;;8.80;54.58;102007.13;5079409;27;97192;-84
2021/11/11 06:04:45;;;;;;;32.67;15.45;;;;;;;8.54;54.97;102011.75;5079435;27;96762;-84
2021/11/11 06:07:12;;;;;;;29.25;17.00;;;;;;;8.57;54.74;102014.38;5062529;27;100982;-83
2021/11/11 06:09:38;;;;;;;32.40;16.73;;;;;;;8.79;54.11;102011.53;5075364;27;100314;-85
2021/11/11 06:12:06;;;;;;;27.77;16.77;;;;;;;8.58;55.22;102018.75;5068318;27;96878;-84
2021/11/11 06:14:34;;;;;;;28.10;16.70;;;;;;;8.57;54.96;102024.91;5088308;27;96656;-85
2021/11/11 06:17:05;;;;;;;39.30;17.35;;;;;;;8.71;55.05;102013.38;5093340;27;100465;-84
2021/11/11 06:19:34;;;;;;;28.10;16.50;;;;;;;8.61;54.98;102021.34;5096203;27;98885;-84
2021/11/11 06:22:01;;;;;;;29.55;17.20;;;;;;;8.74;54.82;102015.09;5101116;27;96325;-84
2021/11/11 06:24:28;;;;;;;29.65;17.33;;;;;;;8.62;54.78;102028.38;5096407;27;96852;-84
2021/11/11 06:26:55;;;;;;;46.47;20.15;;;;;;;8.79;54.58;102032.63;5086570;27;97842;-84
2021/11/11 06:29:22;;;;;;;30.73;17.08;;;;;;;8.59;54.52;102031.91;5087518;27;97761;-85
2021/11/11 06:31:49;;;;;;;32.92;16.85;;;;;;;8.64;54.16;102042.41;5088177;27;96628;-84
2021/11/11 06:34:16;;;;;;;37.40;17.45;;;;;;;8.37;54.68;102038.19;5083157;27;96737;-84
2021/11/11 06:36:44;;;;;;;31.45;17.08;;;;;;;8.43;54.76;102048.69;5078630;27;98479;-86
2021/11/11 06:39:11;;;;;;;36.33;17.20;;;;;;;8.25;56.07;102052.28;5084088;27;100395;-85
2021/11/11 06:41:38;;;;;;;34.78;17.02;;;;;;;8.27;55.77;102053.13;5084882;27;96696;-85
2021/11/11 06:44:05;;;;;;;35.92;18.15;;;;;;;8.52;55.07;102060.94;5068270;27;96603;-85
2021/11/11 06:46:32;;;;;;;40.90;17.80;;;;;;;8.61;54.44;102053.84;5074455;27;102037;-86
2021/11/11 06:49:00;;;;;;;30.27;17.20;;;;;;;8.76;54.45;102059.03;5056148;27;99057;-84
2021/11/11 06:51:27;;;;;;;36.97;19.80;;;;;;;8.95;53.76;102054.47;5071052;27;96968;-84
2021/11/11 06:53:55;;;;;;;31.05;17.67;;;;;;;9.11;54.03;102045.56;5071596;27;96819;-85
2021/11/11 06:56:23;;;;;;;35.28;19.20;;;;;;;9.12;53.72;102060.47;5082945;27;99580;-87
2021/11/11 06:58:49;;;;;;;49.47;18.83;;;;;;;9.15;54.25;102051.66;5074590;27;98256;-86
2021/11/11 07:01:21;;;;;;;33.97;18.33;;;;;;;9.27;53.57;102051.56;5081883;27;96968;-85
2021/11/11 07:03:47;;;;;;;34.67;19.15;;;;;;;9.37;54.23;102047.06;5079104;27;97890;-84
2021/11/11 07:06:15;;;;;;;36.35;18.48;;;;;;;9.35;54.26;102046.22;5069906;27;100333;-86
2021/11/11 07:08:42;;;;;;;35.00;18.08;;;;;;;9.25;54.57;102048.06;5078951;27;101231;-86
2021/11/11 07:11:13;;;;;;;33.70;18.35;;;;;;;9.35;54.04;102046.22;5081690;27;96813;-85
2021/11/11 07:13:40;;;;;;;37.78;18.58;;;;;;;9.31;54.16;102041.88;5076386;27;96825;-86
2021/11/11 07:16:07;;;;;;;35.00;18.15;;;;;;;9.10;54.59;102032.38;5080115;27;100267;-85
2021/11/11 07:18:35;;;;;;;37.65;18.02;;;;;;;9.18;54.63;102033.19;5081199;27;96724;-86
2021/11/11 07:21:02;;;;;;;56.55;20.10;;;;;;;9.38;54.25;102043.56;5064896;27;97195;-86
2021/11/11 07:23:29;;;;;;;42.60;17.88;;;;;;;9.13;54.48;102042.88;5062850;27;97237;-86
2021/11/11 07:25:56;;;;;;;35.28;18.38;;;;;;;9.26;54.86;102043.66;5088973;27;99586;-84
2021/11/11 07:28:24;;;;;;;36.13;18.27;;;;;;;9.25;54.45;102042.81;5079426;27;99068;-84
2021/11/11 07:30:51;;;;;;;42.47;18.65;;;;;;;9.31;54.30;102047.13;5078377;27;96622;-84
2021/11/11 07:33:18;;;;;;;37.08;18.58;;;;;;;9.33;53.87;102050.63;5070480;27;97904;-84
2021/11/11 07:35:46;;;;;;;32.38;18.55;;;;;;;9.50;53.96;102054.84;5069098;27;101382;-89
2021/11/11 07:38:21;;;;;;;43.67;20.05;;;;;;;9.64;54.70;102052.06;5083441;27;98874;-88
2021/11/11 07:40:51;;;;;;;53.50;19.80;;;;;;;9.62;54.76;102045.03;5080246;27;97424;-86
2021/11/11 07:46:06;;;;;;;37.38;20.50;;;;;;;9.70;54.24;102049.38;5076240;27;98650;-86
2021/11/11 07:48:33;;;;;;;42.05;19.27;;;;;;;9.76;54.13;102044.00;5083525;27;99329;-84
2021/11/11 07:51:00;;;;;;;39.38;20.48;;;;;;;9.95;53.92;102048.19;5101367;27;96680;-86
2021/11/11 07:53:29;;;;;;;38.38;18.02;;;;;;;9.85;54.34;102046.53;5077804;27;96834;-82
2021/11/11 07:55:55;;;;;;;41.40;20.50;;;;;;;9.90;54.19;102049.13;5091911;27;98415;-80
2021/11/11 07:58:22;;;;;;;48.58;19.92;;;;;;;9.87;54.46;102051.78;5102768;27;96672;-81
2021/11/11 08:00:49;;;;;;;41.10;20.27;;;;;;;9.97;54.45;102048.16;5101877;27;96767;-81
2021/11/11 08:03:17;;;;;;;39.90;20.05;;;;;;;10.12;54.34;102049.72;5098080;27;96595;-81
2021/11/11 08:05:44;;;;;;;31.95;19.17;;;;;;;10.26;53.79;102039.88;5098761;27;99298;-80
2021/11/11 08:08:11;;;;;;;34.15;19.23;;;;;;;10.44;53.81;102046.66;5100871;27;98258;-79
2021/11/11 08:10:38;;;;;;;39.42;20.27;;;;;;;10.55;53.45;102048.28;5101569;27;96471;-80
2021/11/11 08:13:05;;;;;;;38.88;19.85;;;;;;;10.54;53.66;102041.25;5097386;27;96549;-80
2021/11/11 08:15:32;;;;;;;36.28;20.25;;;;;;;10.77;53.34;102046.16;5094084;27;99701;-81
2021/11/11 08:17:58;;;;;;;39.95;20.38;;;;;;;10.91;52.45;102038.88;5086585;27;101174;-81
2021/11/11 08:20:26;;;;;;;40.65;19.88;;;;;;;11.05;52.27;102036.88;5086536;27;97024;-80
2021/11/11 08:22:53;;;;;;;43.55;19.50;;;;;;;10.97;52.29;102037.91;5086073;27;96765;-81
2021/11/11 08:25:21;;;;;;;41.65;20.23;;;;;;;10.99;52.53;102031.69;5082422;27;101261;-80
2021/11/11 08:27:49;;;;;;;33.28;18.35;;;;;;;11.15;51.96;102032.31;5067182;27;98554;-82
2021/11/11 08:30:17;;;;;;;33.50;19.65;;;;;;;11.14;51.88;102027.94;5084360;27;96856;-81
2021/11/11 08:32:45;;;;;;;36.38;19.77;;;;;;;11.27;51.47;102026.81;5067168;27;96786;-80
2021/11/11 08:35:13;;;;;;;36.05;19.23;;;;;;;11.24;52.02;102029.50;5080702;27;99150;-81
2021/11/11 08:37:42;;;;;;;35.28;19.27;;;;;;;11.56;51.60;102027.13;5079772;27;100906;-80
2021/11/11 08:40:11;;;;;;;39.85;18.35;;;;;;;11.67;50.54;102031.34;5080011;27;97537;-80
2021/11/11 08:42:38;;;;;;;36.40;20.10;;;;;;;11.82;50.52;102036.34;5079730;27;96773;-81
2021/11/11 08:45:05;;;;;;;41.25;20.10;;;;;;;11.68;50.99;102038.41;5078934;27;98140;-82
2021/11/11 08:47:32;;;;;;;39.95;20.58;;;;;;;11.88;50.57;102049.50;5078938;27;99116;-80
2021/11/11 08:49:59;;;;;;;46.13;19.17;;;;;;;11.90;50.38;102051.19;5079103;27;97064;-81
2021/11/11 08:52:27;;;;;;;40.88;18.58;;;;;;;11.77;50.25;102055.00;5079649;27;96841;-80
2021/11/11 08:54:55;;;;;;;36.00;19.08;;;;;;;11.96;50.39;102052.84;5078054;27;99486;-79
2021/11/11 08:57:21;;;;;;;35.15;19.13;;;;;;;11.87;49.74;102050.41;5077570;27;98826;-81
2021/11/11 08:59:52;;;;;;;37.17;20.10;;;;;;;11.85;50.05;102049.56;5076648;27;96665;-81
2021/11/11 09:02:19;;;;;;;35.83;19.17;;;;;;;12.00;50.03;102051.91;5071957;27;96850;-81
2021/11/11 09:04:47;;;;;;;35.17;18.13;;;;;;;12.05;49.63;102049.16;5068936;27;99006;-79
2021/11/11 09:07:14;;;;;;;52.63;26.25;;;;;;;12.04;49.44;102056.22;5068257;27;99225;-81
2021/11/11 09:09:41;;;;;;;33.90;19.98;;;;;;;12.11;49.24;102060.47;5077038;27;97322;-81
2021/11/11 09:12:09;;;;;;;33.78;18.52;;;;;;;12.15;49.53;102072.75;5071843;27;97082;-83
2021/11/11 09:14:37;;;;;;;37.25;18.92;;;;;;;11.55;51.67;102067.72;5072379;27;101419;-80
2021/11/11 09:17:04;;;;;;;35.28;19.17;;;;;;;12.36;50.11;102066.13;5076962;27;99172;-81
2021/11/11 09:19:31;;;;;;;33.80;19.98;;;;;;;12.49;50.14;102061.41;5064528;27;96662;-78
2021/11/11 09:21:58;;;;;;;35.72;20.08;;;;;;;13.01;48.72;102061.06;5076578;27;97322;-81
2021/11/11 09:24:25;;;;;;;43.45;21.92;;;;;;;13.21;49.04;102049.97;5076165;27;99724;-81
2021/11/11 09:26:51;;;;;;;51.03;22.77;;;;;;;13.22;49.36;102049.94;5076907;27;98051;-81
2021/11/11 09:29:19;;;;;;;40.58;19.75;;;;;;;13.30;49.67;102049.75;5064867;27;97294;-80
2021/11/11 09:31:46;;;;;;;36.08;19.17;;;;;;;13.21;50.01;102052.63;5068854;27;96719;-80
2021/11/11 09:34:13;;;;;;;38.28;19.38;;;;;;;13.43;49.63;102053.81;5071957;27;97611;-80
2021/11/11 09:36:39;;;;;;;32.30;15.02;;;;;;;13.21;50.47;102050.84;5078145;27;98050;-80
2021/11/11 09:39:07;;;;;;;22.70;13.00;;;;;;;13.19;50.62;102047.38;5066218;27;97138;-81
2021/11/11 09:41:34;;;;;;;25.45;12.98;;;;;;;12.85;52.03;102055.28;5067579;27;96614;-81
2021/11/11 09:44:01;;;;;;;30.13;14.60;;;;;;;12.73;52.59;102060.88;5078346;27;99220;-81
2021/11/11 09:46:29;;;;;;;33.55;16.20;;;;;;;12.73;51.94;102066.19;5077238;27;98074;-80
2021/11/11 09:48:56;;;;;;;30.30;14.38;;;;;;;12.49;52.41;102069.38;5079652;27;96728;-80
2021/11/11 09:51:24;;;;;;;30.85;15.52;;;;;;;12.62;53.15;102065.53;5091134;27;96687;-81
2021/11/11 09:54:06;;;;;;;27.83;13.30;;;;;;;12.53;52.80;102064.00;5088995;27;99452;-80
2021/11/11 09:59:19;;;;;;;31.23;13.57;;;;;;;12.77;52.85;102070.50;5057336;27;96778;-81
2021/11/11 10:01:48;;;;;;;28.30;14.32;;;;;;;12.58;52.92;102067.41;5071251;27;96792;-81
2021/11/11 10:04:15;;;;;;;31.17;14.55;;;;;;;12.77;53.02;102070.50;5068504;27;100226;-80
2021/11/11 10:06:42;;;;;;;34.15;16.05;;;;;;;13.03;52.42;102064.56;5067254;27;100593;-81
2021/11/11 10:09:14;;;;;;;34.20;15.93;;;;;;;12.91;51.82;102060.44;5076333;27;97761;-81
2021/11/11 10:11:49;;;;;;;38.28;15.57;;;;;;;13.18;52.18;102055.38;5075734;27;97304;-81
2021/11/11 10:14:17;;;;;;;33.72;15.07;;;;;;;13.18;51.69;102056.25;5075570;27;101475;-81
2021/11/11 10:16:48;;;;;;;32.25;14.25;;;;;;;13.24;51.57;102049.91;5075612;27;98164;-81
2021/11/11 10:19:15;;;;;;;30.10;13.75;;;;;;;13.26;51.22;102053.41;5075392;27;96870;-81
2021/11/11 10:21:47;;;;;;;29.58;14.95;;;;;;;13.36;50.58;102054.91;5073066;27;97072;-81
2021/11/11 10:24:24;;;;;;;34.03;14.20;;;;;;;13.49;50.43;102058.97;5073750;27;99452;-80
2021/11/11 10:27:07;;;;;;;32.38;15.90;;;;;;;13.67;49.92;102058.47;5074974;27;99090;-80
2021/11/11 10:29:39;;;;;;;37.50;15.50;;;;;;;13.88;49.43;102060.53;5075399;27;96822;-79
2021/11/11 10:32:12;;;;;;;34.67;15.98;;;;;;;14.33;48.19;102055.66;5064549;27;96792;-79
2021/11/11 10:34:49;;;;;;;35.03;16.05;;;;;;;14.28;48.10;102051.38;5079582;27;102113;-79
2021/11/11 10:37:15;;;;;;;34.38;18.38;;;;;;;14.22;47.80;102056.88;5078948;27;96873;-80
2021/11/11 10:39:53;;;;;;;39.90;19.27;;;;;;;14.45;46.99;102043.78;5078125;27;96894;-80
2021/11/11 10:42:24;;;;;;;39.47;19.23;;;;;;;14.51;46.63;102043.59;5076043;27;97013;-80
2021/11/11 10:44:55;;;;;;;40.75;21.10;;;;;;;14.48;47.12;102037.50;5072303;27;97918;-81
2021/11/11 10:47:27;;;;;;;42.38;20.75;;;;;;;14.58;46.79;102041.59;5076041;27;99188;-80
2021/11/11 10:49:54;;;;;;;41.78;20.65;;;;;;;14.58;46.83;102029.19;5073359;27;96811;-81
2021/11/11 10:52:37;;;;;;;41.47;21.45;;;;;;;14.87;46.39;102019.41;5074715;27;97037;-80
2021/11/11 10:55:20;;;;;;;38.70;21.00;;;;;;;15.08;45.48;102014.22;5072765;27;99980;-80
2021/11/11 10:57:56;;;;;;;39.90;21.20;;;;;;;15.11;46.02;102002.59;5070357;27;101505;-81
2021/11/11 11:00:26;;;;;;;;;;;;;;;15.12;46.05;102004.34;5069316;27;96670;-80
2021/11/11 11:03:03;;;;;;;35.50;20.50;;;;;;;15.30;45.58;102003.69;5072691;27;97234;-81
2021/11/11 11:05:31;;;;;;;;;;;;;;;14.93;45.66;102003.22;5074911;27;99761;-80
2021/11/11 11:08:00;;;;;;;36.90;20.15;;;;;;;15.14;45.10;101999.84;5074815;27;99000;-80
2021/11/11 11:10:27;;;;;;;37.08;19.42;;;;;;;14.88;44.64;101999.84;5062966;27;97373;-80
2021/11/11 11:12:55;;;;;;;37.95;20.40;;;;;;;14.99;44.90;101990.56;5072406;27;96802;-82
2021/11/11 11:15:40;;;;;;;35.25;20.38;;;;;;;14.87;45.49;101983.00;5054029;27;98689;-80
2021/11/11 11:18:10;;;;;;;34.38;19.50;;;;;;;14.96;45.43;101989.81;5075637;27;98074;-81
2021/11/11 11:20:38;;;;;;;45.35;18.92;;;;;;;14.13;46.54;101985.38;5079517;27;96840;-80
2021/11/11 11:23:13;;;;;;;35.22;19.48;;;;;;;14.06;47.04;101983.81;5071269;27;96831;-80
2021/11/11 11:25:50;;;;;;;35.17;19.70;;;;;;;14.42;46.43;101985.41;5074886;27;100734;-80
2021/11/11 11:28:26;;;;;;;40.05;19.88;;;;;;;14.56;46.42;101991.16;5064028;27;97545;-80
2021/11/11 11:30:56;;;;;;;40.55;20.27;;;;;;;14.33;47.01;101990.94;5076831;27;96779;-81
2021/11/11 11:33:34;;;;;;;38.08;20.20;;;;;;;14.42;46.58;101995.16;5079321;27;96908;-80
2021/11/11 11:36:03;;;;;;;38.00;20.08;;;;;;;14.53;46.72;101990.34;5076660;27;101961;-80
2021/11/11 11:38:37;;;;;;;43.00;20.35;;;;;;;14.31;47.29;101988.34;5079728;27;101530;-80
2021/11/11 11:41:06;;;;;;;37.13;19.45;;;;;;;14.48;47.21;101979.88;5074677;27;96898;-81
2021/11/11 11:43:35;;;;;;;35.33;19.83;;;;;;;14.66;46.38;101984.59;5073455;27;96776;-81